Time;durP1;ratioP1;P1;durP2;ratioP2;P2;SDS_P1;SDS_P2;PMS_P1;PMS_P2;Temp;Humidity;BMP_temperature;BMP_pressure;BME280_temperature;BME280_humidity;BME280_pressure;Samples;Min_cycle;Max_cycle;Signal;HPM_P1;HPM_P2
2021/10/31 00:01:45;;;;;;;2.60;1.60;;;16.00;38.90;;;;;;5076511;28;20041;-82
2021/10/31 00:04:10;;;;;;;2.10;1.30;;;16.10;38.80;;;;;;5072223;28;20029;-81
2021/10/31 00:06:36;;;;;;;2.83;1.30;;;16.20;38.80;;;;;;5088278;28;20369;-81
2021/10/31 00:09:07;;;;;;;2.40;1.20;;;16.10;38.70;;;;;;5072005;28;20032;-81
2021/10/31 00:11:34;;;;;;;4.07;1.10;;;16.10;38.60;;;;;;5087219;28;20028;-82
2021/10/31 00:14:01;;;;;;;4.77;2.07;;;16.00;38.70;;;;;;5070711;28;20033;-81
2021/10/31 00:16:26;;;;;;;4.47;1.40;;;16.10;38.90;;;;;;5070401;28;20047;-82
2021/10/31 00:18:52;;;;;;;2.50;1.50;;;16.00;38.70;;;;;;5071140;28;20036;-81
2021/10/31 00:21:18;;;;;;;3.97;1.93;;;16.10;39.60;;;;;;5071291;28;20036;-81
2021/10/31 00:23:44;;;;;;;3.90;1.53;;;16.10;39.10;;;;;;5070453;28;20095;-81
2021/10/31 00:26:10;;;;;;;2.50;1.33;;;16.00;39.00;;;;;;5072165;28;20027;-81
2021/10/31 00:28:35;;;;;;;3.93;1.57;;;16.00;39.30;;;;;;5070826;28;20025;-81
2021/10/31 00:31:01;;;;;;;2.60;1.37;;;16.10;39.50;;;;;;5072280;28;20036;-82
2021/10/31 00:33:27;;;;;;;2.67;1.40;;;16.10;39.50;;;;;;5074326;28;20496;-81
2021/10/31 00:35:52;;;;;;;3.17;1.30;;;16.00;39.50;;;;;;5074954;28;20115;-81
2021/10/31 00:38:18;;;;;;;2.50;1.60;;;16.00;39.50;;;;;;5073752;28;20029;-82
2021/10/31 00:40:44;;;;;;;3.87;1.20;;;15.90;39.50;;;;;;5075592;28;20052;-82
2021/10/31 00:43:11;;;;;;;2.43;1.50;;;15.80;39.60;;;;;;5074595;28;20021;-82
2021/10/31 00:45:36;;;;;;;3.00;1.53;;;15.90;39.80;;;;;;5073695;28;20479;-81
2021/10/31 00:48:02;;;;;;;3.27;1.50;;;15.80;39.70;;;;;;5075675;28;20031;-81
2021/10/31 00:50:28;;;;;;;4.93;1.70;;;15.80;40.10;;;;;;5074409;28;20032;-81
2021/10/31 00:52:54;;;;;;;1.37;1.10;;;15.80;40.00;;;;;;5087753;28;20059;-81
2021/10/31 00:55:20;;;;;;;2.70;1.33;;;15.90;40.20;;;;;;5095955;28;20686;-81
2021/10/31 00:57:46;;;;;;;3.57;1.40;;;15.90;40.10;;;;;;5094199;28;20024;-81
2021/10/31 01:00:13;;;;;;;2.20;1.53;;;15.90;40.30;;;;;;5095436;28;20036;-81
2021/10/31 01:02:40;;;;;;;2.10;1.30;;;15.90;40.50;;;;;;5094545;28;20028;-81
2021/10/31 01:05:10;;;;;;;2.77;1.30;;;15.80;40.40;;;;;;5094455;28;20028;-81
2021/10/31 01:07:52;;;;;;;1.90;1.30;;;15.80;40.60;;;;;;5093051;28;20024;-81
2021/10/31 01:10:27;;;;;;;2.72;1.20;;;15.80;40.70;;;;;;5081988;28;20083;-82
2021/10/31 01:13:07;;;;;;;3.57;1.67;;;15.70;41.10;;;;;;5075566;28;20024;-81
2021/10/31 01:15:39;;;;;;;2.90;1.60;;;15.80;41.20;;;;;;5073976;28;20032;-81
2021/10/31 01:18:33;;;;;;;6.65;2.20;;;15.80;41.10;;;;;;5075057;28;20027;-81
2021/10/31 01:21:22;;;;;;;5.80;2.03;;;15.70;41.20;;;;;;5075343;28;20124;-81
2021/10/31 01:23:57;;;;;;;4.27;2.20;;;15.70;41.10;;;;;;5073440;28;20028;-82
2021/10/31 01:26:32;;;;;;;3.03;1.73;;;15.60;40.90;;;;;;5082931;28;20394;-82
2021/10/31 01:29:19;;;;;;;3.23;1.50;;;15.50;41.00;;;;;;5094857;28;20027;-81
2021/10/31 01:32:07;;;;;;;3.23;1.40;;;15.40;41.40;;;;;;5093648;28;20031;-81
2021/10/31 01:35:00;;;;;;;2.97;1.10;;;15.40;42.10;;;;;;5093505;28;20024;-81
2021/10/31 01:38:04;;;;;;;2.57;1.33;;;15.50;42.50;;;;;;5093290;28;20059;-81
2021/10/31 01:40:42;;;;;;;2.35;1.35;;;15.30;43.20;;;;;;5093642;28;20476;-82
2021/10/31 01:43:27;;;;;;;3.47;1.40;;;15.30;43.60;;;;;;5087497;28;20036;-81
2021/10/31 01:46:11;;;;;;;1.73;1.13;;;15.30;43.10;;;;;;5074825;28;20035;-81
2021/10/31 01:49:14;;;;;;;2.67;1.53;;;15.20;43.20;;;;;;5074167;28;20013;-81
2021/10/31 01:51:50;;;;;;;2.38;1.55;;;15.20;43.00;;;;;;5073206;28;20025;-81
2021/10/31 01:54:28;;;;;;;2.03;1.37;;;15.10;43.00;;;;;;5073163;28;20024;-82
2021/10/31 01:56:59;;;;;;;2.30;1.27;;;15.00;43.30;;;;;;5074178;28;20125;-81
2021/10/31 01:59:29;;;;;;;2.93;1.57;;;15.10;43.80;;;;;;5074383;28;20360;-81
2021/10/31 02:01:58;;;;;;;2.03;1.60;;;15.10;43.00;;;;;;5093224;28;20027;-82
2021/10/31 02:04:26;;;;;;;2.97;1.70;;;15.10;43.00;;;;;;5079119;28;20078;-81
2021/10/31 02:06:53;;;;;;;2.90;1.40;;;15.10;43.00;;;;;;5059019;28;20396;-81
2021/10/31 02:09:22;;;;;;;2.60;1.10;;;15.20;42.90;;;;;;5073859;28;20043;-81
2021/10/31 02:11:49;;;;;;;5.37;1.43;;;15.10;43.30;;;;;;5074167;28;20055;-81
2021/10/31 02:14:17;;;;;;;2.60;1.70;;;15.20;42.90;;;;;;5070033;28;20161;-81
2021/10/31 02:16:45;;;;;;;3.50;1.77;;;15.10;42.70;;;;;;5082321;28;20024;-81
2021/10/31 02:19:21;;;;;;;3.70;1.80;;;15.10;42.60;;;;;;5092834;28;20409;-81
2021/10/31 02:21:56;;;;;;;3.00;1.27;;;15.00;42.70;;;;;;5094131;28;20027;-81
2021/10/31 02:24:22;;;;;;;2.63;1.43;;;15.00;42.80;;;;;;5072637;28;20123;-81
2021/10/31 02:26:50;;;;;;;2.50;1.60;;;15.00;43.00;;;;;;5072476;28;20099;-82
2021/10/31 02:29:15;;;;;;;2.50;1.60;;;15.00;42.80;;;;;;5072533;28;20684;-82
2021/10/31 02:31:41;;;;;;;4.27;1.90;;;15.00;43.00;;;;;;5071998;28;20119;-81
2021/10/31 02:34:07;;;;;;;3.63;1.53;;;14.90;42.60;;;;;;5078800;28;20112;-81
2021/10/31 02:36:35;;;;;;;3.80;1.53;;;14.80;42.70;;;;;;5092500;28;20036;-81
2021/10/31 02:39:04;;;;;;;3.43;1.37;;;14.70;42.80;;;;;;5091915;28;20051;-81
2021/10/31 02:41:31;;;;;;;2.87;1.70;;;14.70;42.90;;;;;;5092349;28;20512;-81
2021/10/31 02:43:58;;;;;;;1.73;1.40;;;14.70;43.10;;;;;;5093150;28;20040;-82
2021/10/31 02:46:26;;;;;;;2.30;1.27;;;14.80;43.40;;;;;;5093179;28;20016;-81
2021/10/31 02:48:53;;;;;;;2.17;1.20;;;14.80;43.60;;;;;;5092222;28;20024;-81
2021/10/31 02:51:43;;;;;;;3.83;1.63;;;14.80;43.50;;;;;;5084825;28;20031;-81
2021/10/31 02:54:22;;;;;;;3.50;1.47;;;14.80;43.80;;;;;;5071610;28;20078;-82
2021/10/31 02:57:02;;;;;;;3.33;1.50;;;14.60;44.00;;;;;;5073586;28;20019;-81
2021/10/31 02:59:45;;;;;;;2.17;1.20;;;14.60;44.60;;;;;;5071517;28;20024;-82
2021/10/31 03:02:11;;;;;;;1.87;1.00;;;14.50;45.10;;;;;;5073598;28;20024;-81
2021/10/31 03:04:38;;;;;;;1.93;1.13;;;14.50;45.60;;;;;;5068239;28;20025;-81
2021/10/31 03:07:04;;;;;;;2.20;1.20;;;14.40;45.80;;;;;;5068382;28;20029;-81
2021/10/31 03:09:30;;;;;;;1.20;0.73;;;14.40;46.20;;;;;;5090308;28;20363;-81
2021/10/31 03:12:07;;;;;;;3.77;0.87;;;14.30;46.30;;;;;;5092049;28;20024;-81
2021/10/31 03:14:34;;;;;;;2.23;1.30;;;14.00;47.40;;;;;;5091517;28;20032;-81
2021/10/31 03:17:00;;;;;;;2.33;1.53;;;13.80;47.80;;;;;;5093153;28;20024;-81
2021/10/31 03:19:26;;;;;;;3.83;1.37;;;13.70;48.10;;;;;;5091021;28;20030;-82
2021/10/31 03:21:52;;;;;;;1.73;0.80;;;13.70;48.50;;;;;;5092557;28;20039;-81
2021/10/31 03:24:17;;;;;;;2.77;1.47;;;13.70;48.70;;;;;;5092700;28;20020;-81
2021/10/31 03:26:43;;;;;;;3.37;1.40;;;13.70;48.60;;;;;;5087682;28;20017;-81
2021/10/31 03:29:09;;;;;;;2.20;1.37;;;13.70;48.20;;;;;;5070967;28;20479;-81
2021/10/31 03:31:35;;;;;;;1.93;1.33;;;13.80;48.50;;;;;;5071487;28;20020;-81
2021/10/31 03:34:01;;;;;;;2.00;1.20;;;13.80;48.10;;;;;;5072443;28;20482;-81
2021/10/31 03:36:27;;;;;;;2.77;1.60;;;13.80;48.10;;;;;;5071597;28;20070;-81
2021/10/31 03:38:53;;;;;;;3.23;1.33;;;13.90;47.90;;;;;;5072215;28;20021;-81
2021/10/31 03:41:18;;;;;;;2.67;1.60;;;13.90;47.90;;;;;;5071804;28;20103;-81
2021/10/31 03:43:44;;;;;;;2.30;1.37;;;14.00;47.80;;;;;;5092412;28;20097;-81
2021/10/31 03:46:10;;;;;;;1.80;1.03;;;13.80;47.70;;;;;;5092956;28;20024;-81
2021/10/31 03:48:36;;;;;;;3.93;1.60;;;13.70;48.00;;;;;;5091366;28;20023;-81
2021/10/31 03:51:01;;;;;;;3.50;1.60;;;13.70;48.00;;;;;;5091299;28;20032;-81
2021/10/31 03:53:27;;;;;;;1.70;1.20;;;13.70;47.90;;;;;;5092266;28;20470;-81
2021/10/31 03:55:54;;;;;;;2.50;1.20;;;13.70;47.90;;;;;;5091223;28;20024;-81
2021/10/31 03:58:20;;;;;;;1.20;0.97;;;13.50;48.70;;;;;;5092274;28;20020;-81
2021/10/31 04:00:46;;;;;;;2.17;1.30;;;13.40;49.20;;;;;;5071585;28;20029;-81
2021/10/31 04:03:12;;;;;;;2.30;1.00;;;13.50;49.30;;;;;;5071778;28;20037;-81
2021/10/31 04:05:38;;;;;;;1.43;0.90;;;13.70;49.30;;;;;;5053133;28;20025;-81
2021/10/31 04:08:04;;;;;;;2.00;1.13;;;13.80;49.20;;;;;;5056171;28;20036;-82
2021/10/31 04:10:30;;;;;;;2.10;1.30;;;13.80;49.10;;;;;;5054810;28;20391;-81
2021/10/31 04:12:56;;;;;;;2.60;1.53;;;13.50;49.40;;;;;;5055253;28;20029;-81
2021/10/31 04:15:23;;;;;;;3.60;1.77;;;13.40;49.90;;;;;;5056305;28;20491;-81
2021/10/31 04:17:49;;;;;;;3.00;1.57;;;13.40;49.90;;;;;;5056009;28;20029;-81
2021/10/31 04:20:15;;;;;;;3.77;2.10;;;13.30;49.70;;;;;;5056396;28;20028;-82
2021/10/31 04:22:42;;;;;;;4.17;1.60;;;13.30;50.10;;;;;;5054567;28;20106;-81
2021/10/31 04:25:08;;;;;;;2.27;1.20;;;13.30;50.40;;;;;;5067628;28;20120;-81
2021/10/31 04:27:34;;;;;;;3.57;1.60;;;13.40;50.40;;;;;;5059439;28;20021;-81
2021/10/31 04:30:00;;;;;;;2.90;1.47;;;13.40;50.30;;;;;;5071447;28;20025;-81
2021/10/31 04:32:26;;;;;;;2.20;1.40;;;13.30;50.40;;;;;;5058568;28;20021;-81
2021/10/31 04:34:52;;;;;;;3.07;1.40;;;13.20;50.60;;;;;;5095063;28;20115;-81
2021/10/31 04:37:18;;;;;;;2.53;1.30;;;13.30;50.60;;;;;;5094041;28;20036;-82
2021/10/31 04:39:45;;;;;;;2.90;1.30;;;13.30;50.30;;;;;;5094321;28;20106;-81
2021/10/31 04:42:11;;;;;;;4.10;1.37;;;13.40;50.40;;;;;;5095798;28;20042;-81
2021/10/31 04:44:38;;;;;;;1.93;0.90;;;13.30;50.20;;;;;;5095306;28;20044;-82
2021/10/31 04:47:05;;;;;;;5.43;1.60;;;13.30;50.40;;;;;;5075519;28;20021;-81
2021/10/31 04:49:31;;;;;;;2.17;1.23;;;13.30;50.40;;;;;;5075337;28;20558;-82
2021/10/31 04:51:57;;;;;;;3.87;1.33;;;13.30;50.40;;;;;;5074843;28;20096;-81
2021/10/31 04:54:23;;;;;;;3.97;1.70;;;13.30;50.00;;;;;;5074560;28;20395;-81
2021/10/31 04:56:50;;;;;;;2.93;2.23;;;13.20;50.00;;;;;;5074815;28;20052;-81
2021/10/31 04:59:17;;;;;;;2.93;1.70;;;13.30;50.10;;;;;;5075528;28;20035;-81
2021/10/31 05:01:45;;;;;;;3.03;1.63;;;13.20;50.10;;;;;;5073888;28;20059;-81
2021/10/31 05:04:11;;;;;;;6.53;1.60;;;13.30;49.70;;;;;;5053930;28;20040;-81
2021/10/31 05:06:36;;;;;;;2.00;1.50;;;13.40;49.60;;;;;;5060814;28;20452;-81
2021/10/31 05:09:02;;;;;;;2.47;1.40;;;13.50;49.50;;;;;;5095124;28;20504;-81
2021/10/31 05:11:28;;;;;;;1.97;1.20;;;13.50;49.30;;;;;;5093794;28;20024;-81
2021/10/31 05:13:54;;;;;;;4.43;1.60;;;13.50;49.60;;;;;;5093854;28;20021;-81
2021/10/31 05:16:20;;;;;;;2.03;1.23;;;13.50;49.60;;;;;;5092931;28;20503;-82
2021/10/31 05:18:46;;;;;;;2.10;1.10;;;13.60;49.70;;;;;;5093787;28;20024;-81
2021/10/31 05:21:12;;;;;;;3.97;2.00;;;13.60;49.80;;;;;;5093574;28;20032;-81
2021/10/31 05:23:37;;;;;;;2.83;1.33;;;13.50;49.90;;;;;;5093984;28;20032;-81
2021/10/31 05:26:03;;;;;;;3.60;1.57;;;13.40;50.20;;;;;;5093508;28;20024;-81
2021/10/31 05:28:31;;;;;;;2.80;1.80;;;13.30;50.00;;;;;;5093390;28;20028;-82
2021/10/31 05:30:56;;;;;;;2.37;1.30;;;13.10;50.40;;;;;;5074756;28;20036;-81
2021/10/31 05:33:23;;;;;;;2.80;1.63;;;13.10;50.70;;;;;;5069760;28;20072;-82
2021/10/31 05:35:51;;;;;;;2.60;1.60;;;13.10;51.00;;;;;;5054297;28;20498;-81
2021/10/31 05:38:19;;;;;;;3.00;1.90;;;13.10;50.80;;;;;;5069504;28;20037;-81
2021/10/31 05:40:46;;;;;;;3.50;1.90;;;13.10;51.10;;;;;;5061468;28;20032;-81
2021/10/31 05:43:12;;;;;;;1.83;1.20;;;13.10;51.00;;;;;;5094617;28;20036;-81
2021/10/31 05:45:38;;;;;;;2.67;1.70;;;13.00;51.20;;;;;;5093062;28;20048;-81
2021/10/31 05:48:04;;;;;;;1.97;1.30;;;12.80;51.50;;;;;;5094126;28;20027;-81
2021/10/31 05:50:30;;;;;;;4.23;1.57;;;12.80;51.80;;;;;;5093397;28;20040;-81
2021/10/31 05:52:56;;;;;;;2.60;1.57;;;12.70;52.10;;;;;;5092931;28;20097;-81
2021/10/31 05:55:22;;;;;;;3.60;1.60;;;12.50;52.50;;;;;;5092897;28;20051;-81
2021/10/31 05:57:48;;;;;;;4.67;1.47;;;12.50;52.80;;;;;;5088675;28;20029;-81
2021/10/31 06:00:16;;;;;;;3.67;1.87;;;12.30;53.10;;;;;;5072787;28;20044;-81
2021/10/31 06:02:42;;;;;;;2.70;1.50;;;12.40;53.30;;;;;;5073896;28;20093;-81
2021/10/31 06:05:09;;;;;;;2.33;1.63;;;12.50;53.30;;;;;;5073935;28;20024;-81
2021/10/31 06:07:34;;;;;;;3.30;1.70;;;12.60;53.00;;;;;;5072555;28;20032;-81
2021/10/31 06:10:00;;;;;;;4.10;1.90;;;12.50;53.10;;;;;;5074107;28;20028;-81
2021/10/31 06:12:26;;;;;;;3.53;2.27;;;12.50;53.20;;;;;;5073727;28;20089;-81
2021/10/31 06:14:52;;;;;;;4.83;2.23;;;12.60;53.30;;;;;;5074810;28;20029;-81
2021/10/31 06:17:18;;;;;;;3.90;2.17;;;12.50;53.40;;;;;;5072358;28;20387;-81
2021/10/31 06:19:44;;;;;;;3.20;1.93;;;12.50;54.10;;;;;;5073840;28;20036;-81
2021/10/31 06:22:10;;;;;;;3.10;2.27;;;12.60;53.30;;;;;;5073416;28;20032;-81
2021/10/31 06:24:36;;;;;;;6.50;2.70;;;12.60;53.10;;;;;;5071706;28;20047;-81
2021/10/31 06:27:01;;;;;;;5.63;3.63;;;12.50;53.10;;;;;;5073723;28;20031;-81
2021/10/31 06:29:27;;;;;;;4.53;3.17;;;12.70;53.40;;;;;;5070956;28;20458;-81
2021/10/31 06:31:53;;;;;;;5.73;3.10;;;12.60;53.10;;;;;;5078466;28;20020;-81
2021/10/31 06:34:19;;;;;;;5.13;3.17;;;12.60;53.30;;;;;;5093392;28;20034;-81
2021/10/31 06:36:45;;;;;;;6.43;3.07;;;12.60;53.20;;;;;;5073606;28;20090;-81
2021/10/31 06:39:11;;;;;;;6.63;2.50;;;12.60;53.20;;;;;;5068089;28;20399;-81
2021/10/31 06:41:37;;;;;;;4.60;2.70;;;12.50;53.30;;;;;;5053228;28;20039;-81
2021/10/31 06:44:04;;;;;;;3.77;2.37;;;12.50;53.10;;;;;;5067591;28;20049;-81
2021/10/31 06:46:30;;;;;;;6.30;2.77;;;12.60;53.10;;;;;;5068661;28;20698;-81
2021/10/31 06:48:56;;;;;;;4.90;3.30;;;12.50;53.30;;;;;;5064196;28;20024;-82
2021/10/31 06:51:23;;;;;;;5.77;3.37;;;12.50;53.40;;;;;;5091956;28;20066;-80
2021/10/31 06:53:49;;;;;;;7.43;4.87;;;12.50;53.50;;;;;;5091727;28;20024;-80
2021/10/31 06:56:16;;;;;;;11.10;6.23;;;12.50;53.50;;;;;;5093172;28;20569;-80
2021/10/31 06:58:42;;;;;;;14.13;8.30;;;12.50;53.70;;;;;;5077699;28;20683;-82
2021/10/31 07:01:08;;;;;;;9.03;6.33;;;12.50;54.00;;;;;;5071448;28;20024;-82
2021/10/31 07:03:34;;;;;;;7.87;5.50;;;12.50;53.90;;;;;;5071362;28;20169;-82
2021/10/31 07:06:01;;;;;;;9.60;5.63;;;12.50;53.90;;;;;;5072397;28;20025;-81
2021/10/31 07:08:28;;;;;;;9.23;5.00;;;12.40;54.10;;;;;;5070821;28;20025;-82
2021/10/31 07:10:54;;;;;;;11.87;4.50;;;12.40;54.10;;;;;;5072316;28;20117;-82
2021/10/31 07:13:19;;;;;;;8.20;5.43;;;12.50;53.90;;;;;;5088028;28;20071;-82
2021/10/31 07:15:46;;;;;;;6.93;4.50;;;12.40;53.90;;;;;;5072739;28;20062;-82
2021/10/31 07:18:11;;;;;;;6.13;4.23;;;12.30;54.30;;;;;;5072532;28;20037;-82
2021/10/31 07:20:37;;;;;;;5.57;3.80;;;12.20;54.60;;;;;;5071415;28;20601;-82
2021/10/31 07:23:03;;;;;;;4.97;3.50;;;12.20;54.90;;;;;;5071900;28;20037;-82
2021/10/31 07:25:30;;;;;;;5.33;3.50;;;12.30;55.00;;;;;;5070942;28;20082;-82
2021/10/31 07:27:56;;;;;;;4.70;3.20;;;12.20;55.10;;;;;;5071204;28;20035;-82
2021/10/31 07:30:23;;;;;;;4.23;2.80;;;12.20;55.30;;;;;;5072798;28;20028;-82
2021/10/31 07:33:00;;;;;;;5.43;2.43;;;12.30;55.00;;;;;;5071082;28;20031;-82
2021/10/31 07:35:27;;;;;;;5.83;3.40;;;12.40;54.60;;;;;;5071185;28;20025;-82
2021/10/31 07:37:53;;;;;;;6.67;3.77;;;12.40;54.40;;;;;;5072113;28;20029;-82
2021/10/31 07:40:19;;;;;;;5.33;3.57;;;12.40;54.40;;;;;;5070788;28;20024;-82
2021/10/31 07:42:45;;;;;;;12.30;5.87;;;12.40;54.30;;;;;;5065301;28;20119;-82
2021/10/31 07:45:11;;;;;;;11.30;5.90;;;12.40;54.50;;;;;;5081769;28;20059;-82
2021/10/31 07:47:37;;;;;;;7.97;5.03;;;12.30;54.90;;;;;;5071851;28;20024;-82
2021/10/31 07:50:04;;;;;;;8.37;5.30;;;12.30;56.00;;;;;;5072402;28;20029;-82
2021/10/31 07:52:30;;;;;;;10.37;5.87;;;12.30;55.70;;;;;;5087569;28;20050;-82
2021/10/31 07:54:56;;;;;;;7.23;4.07;;;12.30;55.80;;;;;;5072124;28;20028;-82
2021/10/31 07:57:24;;;;;;;7.77;4.23;;;12.30;55.80;;;;;;5072558;28;20047;-82
2021/10/31 07:59:51;;;;;;;6.27;3.63;;;12.30;56.00;;;;;;5070842;28;20089;-82
2021/10/31 08:02:17;;;;;;;8.40;4.43;;;12.40;55.80;;;;;;5071866;28;20114;-82
2021/10/31 08:04:43;;;;;;;11.97;4.57;;;12.40;55.80;;;;;;5067389;28;20039;-82
2021/10/31 08:07:09;;;;;;;6.57;4.00;;;12.50;56.10;;;;;;5050785;28;20029;-82
2021/10/31 08:09:36;;;;;;;5.43;3.50;;;12.60;55.70;;;;;;5051467;28;20155;-82
2021/10/31 08:12:02;;;;;;;5.47;3.17;;;12.70;55.50;;;;;;5052240;28;20118;-82
2021/10/31 08:14:28;;;;;;;6.80;2.77;;;12.90;55.30;;;;;;5071165;28;20401;-82
2021/10/31 08:16:55;;;;;;;6.53;3.07;;;13.30;54.30;;;;;;5092137;28;20107;-80
2021/10/31 08:19:24;;;;;;;3.63;2.50;;;13.50;53.30;;;;;;5090757;28;20479;-80
2021/10/31 08:21:52;;;;;;;5.90;2.75;;;14.20;52.50;;;;;;5092178;28;20425;-80
2021/10/31 08:24:18;;;;;;;5.80;2.75;;;15.40;51.60;;;;;;5090442;28;20479;-81
2021/10/31 08:26:44;;;;;;;5.35;3.90;;;16.60;50.00;;;;;;5092364;28;20024;-81
2021/10/31 08:29:11;;;;;;;5.68;4.85;;;17.70;48.60;;;;;;5090589;28;20069;-81
2021/10/31 08:31:42;;;;;;;5.47;3.80;;;18.70;47.70;;;;;;5081510;28;20017;-81
2021/10/31 08:34:08;;;;;;;3.72;3.15;;;19.10;46.70;;;;;;5070408;28;20024;-81
2021/10/31 08:36:34;;;;;;;4.10;3.03;;;19.40;45.70;;;;;;5071709;28;20348;-81
2021/10/31 08:39:01;;;;;;;2.40;2.20;;;19.40;44.90;;;;;;5071402;28;20060;-81
2021/10/31 08:41:28;;;;;;;4.20;2.90;;;19.30;44.30;;;;;;5070698;28;20469;-81
2021/10/31 08:43:57;;;;;;;3.22;2.83;;;19.20;43.70;;;;;;5071304;28;20041;-81
2021/10/31 08:46:23;;;;;;;2.97;2.30;;;19.10;43.20;;;;;;5058406;28;20495;-81
2021/10/31 08:48:48;;;;;;;2.30;2.00;;;18.90;42.60;;;;;;5063314;28;20054;-81
2021/10/31 08:51:16;;;;;;;2.40;2.00;;;18.70;42.40;;;;;;5073147;28;20104;-81
2021/10/31 08:53:42;;;;;;;4.65;2.35;;;18.50;42.10;;;;;;5053817;28;20029;-81
2021/10/31 08:56:13;;;;;;;5.28;1.85;;;18.50;41.90;;;;;;5055408;28;20018;-81
2021/10/31 08:58:40;;;;;;;2.78;2.00;;;18.40;41.60;;;;;;5070594;28;20424;-81
2021/10/31 09:01:06;;;;;;;3.53;2.20;;;18.30;41.50;;;;;;5055381;28;20074;-81
2021/10/31 09:03:32;;;;;;;5.07;2.70;;;18.30;41.50;;;;;;5070391;28;20021;-81
2021/10/31 09:05:58;;;;;;;4.05;2.95;;;18.20;41.50;;;;;;5069233;28;20031;-81
2021/10/31 09:08:23;;;;;;;3.35;2.08;;;18.30;41.80;;;;;;5074867;28;20017;-81
2021/10/31 09:10:52;;;;;;;2.65;2.08;;;18.30;41.60;;;;;;5075142;28;20348;-81
2021/10/31 09:13:19;;;;;;;3.17;2.03;;;18.40;41.70;;;;;;5073303;28;20021;-81
2021/10/31 09:15:45;;;;;;;3.35;2.63;;;18.60;41.70;;;;;;5072963;28;20039;-81
2021/10/31 09:18:11;;;;;;;2.58;2.25;;;18.80;41.60;;;;;;5073000;28;20119;-81
2021/10/31 09:20:37;;;;;;;3.47;2.05;;;18.90;41.20;;;;;;5072643;28;20025;-81
2021/10/31 09:23:05;;;;;;;2.70;2.00;;;19.00;40.80;;;;;;5073071;28;20025;-81
2021/10/31 09:25:32;;;;;;;3.80;1.90;;;19.00;40.80;;;;;;5072847;28;20025;-81
2021/10/31 09:27:59;;;;;;;5.15;2.13;;;19.00;40.60;;;;;;5074321;28;20494;-81
2021/10/31 09:30:32;;;;;;;2.50;1.48;;;19.00;40.30;;;;;;5073628;28;20025;-81
2021/10/31 09:32:58;;;;;;;3.17;1.95;;;19.10;40.20;;;;;;5073053;28;20638;-81
2021/10/31 09:35:30;;;;;;;2.42;1.90;;;19.20;40.00;;;;;;5073115;28;20032;-81
2021/10/31 09:38:03;;;;;;;2.20;1.98;;;19.20;40.10;;;;;;5072897;28;20111;-81
2021/10/31 09:40:30;;;;;;;2.08;1.67;;;19.20;39.80;;;;;;5074764;28;20032;-81
2021/10/31 09:42:59;;;;;;;2.63;1.50;;;19.30;39.50;;;;;;5073016;28;20363;-82
2021/10/31 09:45:29;;;;;;;2.80;1.90;;;19.60;39.30;;;;;;5068762;28;20077;-82
2021/10/31 09:47:56;;;;;;;2.97;2.13;;;19.70;39.00;;;;;;5052278;28;20105;-81
2021/10/31 09:50:24;;;;;;;2.63;1.70;;;19.90;38.80;;;;;;5054218;28;20044;-81
2021/10/31 09:52:51;;;;;;;3.75;1.58;;;20.00;38.50;;;;;;5052226;28;20025;-82
2021/10/31 09:55:17;;;;;;;1.98;1.60;;;20.20;38.20;;;;;;5064057;28;20074;-82
2021/10/31 09:57:42;;;;;;;1.80;1.58;;;20.30;38.00;;;;;;5073673;28;20048;-81
2021/10/31 10:00:09;;;;;;;2.03;1.50;;;20.50;37.80;;;;;;5072653;28;20064;-82
2021/10/31 10:02:48;;;;;;;2.30;1.60;;;20.60;37.20;;;;;;5072373;28;20028;-82
2021/10/31 10:05:18;;;;;;;3.08;1.55;;;20.60;36.80;;;;;;5072652;28;20468;-82
2021/10/31 10:07:45;;;;;;;2.97;1.70;;;20.80;36.60;;;;;;5073672;28;20036;-82
2021/10/31 10:10:15;;;;;;;3.50;2.20;;;20.80;36.60;;;;;;5073516;28;20635;-82
2021/10/31 10:12:41;;;;;;;1.63;1.50;;;20.80;36.80;;;;;;5072507;28;20087;-82
2021/10/31 10:15:11;;;;;;;2.13;1.73;;;20.90;36.50;;;;;;5071996;28;20537;-81
2021/10/31 10:17:50;;;;;;;2.55;1.50;;;20.90;36.10;;;;;;5073639;28;20048;-82
2021/10/31 10:20:17;;;;;;;1.63;1.27;;;20.90;36.00;;;;;;5073882;28;20021;-82
2021/10/31 10:22:44;;;;;;;3.50;1.65;;;20.90;36.40;;;;;;5073071;28;20033;-82
2021/10/31 10:25:11;;;;;;;2.72;1.60;;;21.00;36.10;;;;;;5072091;28;20074;-82
2021/10/31 10:27:57;;;;;;;3.00;1.55;;;21.00;35.90;;;;;;5072100;28;20023;-82
2021/10/31 10:30:25;;;;;;;2.00;1.40;;;21.20;35.80;;;;;;5081278;28;20449;-81
2021/10/31 10:32:55;;;;;;;2.28;1.40;;;21.00;36.20;;;;;;5093727;28;20080;-82
2021/10/31 10:35:24;;;;;;;1.88;1.48;;;21.10;36.40;;;;;;5092647;28;20028;-82
2021/10/31 10:37:51;;;;;;;2.20;1.42;;;21.10;36.20;;;;;;5092947;28;20501;-82
2021/10/31 10:40:25;;;;;;;4.53;1.65;;;21.20;36.40;;;;;;5093566;28;20489;-82
2021/10/31 10:42:56;;;;;;;2.88;1.48;;;21.30;36.70;;;;;;5092147;28;20032;-82
2021/10/31 10:45:25;;;;;;;3.40;1.50;;;21.30;36.60;;;;;;5081111;28;20098;-82
2021/10/31 10:47:55;;;;;;;3.80;1.48;;;21.30;36.20;;;;;;5086504;28;20039;-82
2021/10/31 10:50:28;;;;;;;4.03;1.38;;;21.30;36.10;;;;;;5093442;28;20024;-81
2021/10/31 10:52:54;;;;;;;2.00;1.70;;;21.40;36.10;;;;;;5093465;28;20016;-82
2021/10/31 10:55:25;;;;;;;1.85;1.13;;;21.30;36.30;;;;;;5093583;28;20024;-81
2021/10/31 10:57:56;;;;;;;1.95;1.30;;;21.20;36.30;;;;;;5092528;28;20024;-81
2021/10/31 11:00:24;;;;;;;3.10;1.35;;;21.20;36.30;;;;;;5071928;28;20033;-81
2021/10/31 11:03:03;;;;;;;3.10;1.10;;;21.10;36.30;;;;;;5084938;28;20505;-81
2021/10/31 11:05:34;;;;;;;2.35;1.35;;;21.10;36.20;;;;;;5088893;28;20105;-82
2021/10/31 11:08:01;;;;;;;1.70;1.30;;;21.10;36.30;;;;;;5073433;28;20017;-82
2021/10/31 11:10:31;;;;;;;1.58;1.23;;;21.10;36.30;;;;;;5072684;28;20162;-81
2021/10/31 11:13:04;;;;;;;1.85;1.30;;;21.10;36.20;;;;;;5088419;28;20483;-81
2021/10/31 11:15:32;;;;;;;2.55;1.30;;;21.00;36.40;;;;;;5072438;28;20044;-82
2021/10/31 11:18:01;;;;;;;2.00;1.38;;;21.00;36.60;;;;;;5070202;28;20029;-81
2021/10/31 11:20:29;;;;;;;1.88;1.40;;;21.00;36.30;;;;;;5054753;28;20025;-82
2021/10/31 11:23:02;;;;;;;2.42;1.33;;;21.10;36.10;;;;;;5092747;28;20069;-82
2021/10/31 11:25:28;;;;;;;;;;;21.10;36.00;;;;;;5091639;28;20052;-81
2021/10/31 11:27:56;;;;;;;2.65;1.65;;;21.10;36.10;;;;;;5075598;28;19962;-81
2021/10/31 11:30:24;;;;;;;3.33;1.00;;;21.20;36.20;;;;;;5071855;28;20074;-81
2021/10/31 11:32:53;;;;;;;6.00;1.30;;;21.10;37.00;;;;;;5071127;28;20074;-82
2021/10/31 11:35:20;;;;;;;2.78;1.50;;;21.00;36.80;;;;;;5072611;28;20039;-81
2021/10/31 11:37:55;;;;;;;3.90;0.98;;;21.00;37.00;;;;;;5072622;28;20762;-81
2021/10/31 11:40:58;;;;;;;3.95;1.17;;;21.00;37.00;;;;;;5072743;28;20024;-82
2021/10/31 11:43:26;;;;;;;2.60;1.20;;;21.10;37.00;;;;;;5071285;28;20078;-81
2021/10/31 11:45:54;;;;;;;1.10;0.82;;;21.10;37.20;;;;;;5055706;28;20294;-81
2021/10/31 11:48:32;;;;;;;1.92;1.30;;;21.10;37.50;;;;;;5050974;28;20086;-81
2021/10/31 11:51:01;;;;;;;1.83;1.30;;;21.10;37.20;;;;;;5050994;28;20017;-81
2021/10/31 11:53:32;;;;;;;1.92;1.20;;;21.00;37.30;;;;;;5067629;28;20464;-81
2021/10/31 11:56:06;;;;;;;4.00;1.05;;;21.00;37.60;;;;;;5081237;28;20025;-82
2021/10/31 11:58:43;;;;;;;1.75;1.33;;;21.10;37.70;;;;;;5072549;28;20027;-81
2021/10/31 12:01:21;;;;;;;1.80;0.80;;;21.20;37.60;;;;;;5071076;28;20025;-82
2021/10/31 12:03:58;;;;;;;2.97;1.17;;;21.20;37.40;;;;;;5072391;28;20025;-82
2021/10/31 12:06:25;;;;;;;1.25;1.13;;;21.20;37.40;;;;;;5066963;28;20031;-81
2021/10/31 12:08:57;;;;;;;1.88;1.10;;;21.20;37.50;;;;;;5070403;28;20021;-81
2021/10/31 12:11:32;;;;;;;2.00;1.08;;;21.10;37.60;;;;;;5071549;28;20017;-82
2021/10/31 12:14:09;;;;;;;15.18;1.15;;;21.20;37.80;;;;;;5092576;28;20043;-82
2021/10/31 12:16:51;;;;;;;2.53;0.98;;;21.20;37.70;;;;;;5090882;28;20020;-82
2021/10/31 12:19:22;;;;;;;2.08;1.30;;;21.30;37.60;;;;;;5092469;28;20054;-81
2021/10/31 12:22:23;;;;;;;1.25;0.77;;;21.20;37.50;;;;;;5092347;28;20023;-82
2021/10/31 12:24:56;;;;;;;1.48;1.10;;;21.40;37.00;;;;;;5091557;28;20082;-82
2021/10/31 12:27:23;;;;;;;;;;;21.30;37.00;;;;;;5095330;28;20024;-81
2021/10/31 12:29:59;;;;;;;9.07;1.10;;;21.40;37.10;;;;;;5095526;28;19908;-81
2021/10/31 12:32:30;;;;;;;2.15;0.95;;;21.40;36.80;;;;;;5076818;28;20021;-80
2021/10/31 12:34:56;;;;;;;2.40;0.90;;;21.50;36.70;;;;;;5074835;28;20027;-81
2021/10/31 12:37:22;;;;;;;2.50;0.70;;;21.40;36.50;;;;;;5074609;28;20028;-82
2021/10/31 12:39:55;;;;;;;1.88;0.80;;;21.50;36.50;;;;;;5074730;28;20078;-82
2021/10/31 12:42:28;;;;;;;5.65;0.90;;;21.50;36.50;;;;;;5074705;28;20135;-82
2021/10/31 12:45:16;;;;;;;2.95;0.82;;;21.60;36.40;;;;;;5073910;28;20402;-82
2021/10/31 12:47:44;;;;;;;1.25;0.80;;;21.60;36.40;;;;;;5075039;28;20051;-82
2021/10/31 12:50:23;;;;;;;2.03;0.63;;;21.60;36.40;;;;;;5074851;28;20028;-83
2021/10/31 12:53:00;;;;;;;1.40;0.75;;;21.60;36.80;;;;;;5074772;28;20025;-84
2021/10/31 12:55:27;;;;;;;1.65;0.85;;;21.60;36.90;;;;;;5074829;28;20495;-82
2021/10/31 12:57:58;;;;;;;1.25;0.70;;;21.60;36.70;;;;;;5074578;28;20029;-82